F/V Cote D'ambre — FPEY — position and weather

sailwx.info

Track history (hours):
 
Tides and Currents Weather Stations Pressure Air Temp Water Temp Dewpoint Dewpoint Depression Visibility Wind Speed Wind Dir Waves Ship Positions

F/V Cote D'ambre

Last reported at 2017-Oct-17 09:30 UTC. Time now 2017-Oct-17 09:38 UTC.
Position N 47°30' W 003°24'.

Length 16 m; draft 4 m.

Type: Fishing. MMSI: 227128800.

Date/timePositionNaut miles runAvg speedWind from/ knotsBaromVisibWave heightAir tempDewpointWater temp
2017-Oct-17 09:30N 47°30' W 003°24'1 2.4
2017-Oct-17 09:00N 47°29' W 003°23'2 3.1
2017-Oct-17 08:30N 47°28' W 003°21'1 2.8
2017-Oct-17 08:00N 47°30' W 003°21'1 2.8
2017-Oct-17 07:30N 47°31' W 003°22'1 2.9
2017-Oct-17 07:00N 47°31' W 003°24'1 2.8
2017-Oct-17 06:30N 47°32' W 003°26'  
2017-Oct-13 22:47N 47°44' W 003°22'0 0.6
2017-Oct-13 22:30N 47°44' W 003°22'0 0.0
2017-Oct-13 22:00N 47°44' W 003°22'2 3.9
2017-Oct-13 21:30N 47°42' W 003°22'4 8.1
2017-Oct-13 21:00N 47°40' W 003°28'4 8.3
2017-Oct-13 20:30N 47°39' W 003°34'4 8.4
2017-Oct-13 20:00N 47°37' W 003°39'4 8.4
2017-Oct-13 19:30N 47°35' W 003°45'4 7.9
2017-Oct-13 19:00N 47°33' W 003°49'1 2.7
2017-Oct-13 18:30N 47°32' W 003°51'2 3.2
2017-Oct-13 18:00N 47°32' W 003°54'2 3.3
2017-Oct-13 17:31N 47°31' W 003°56'2 3.0
2017-Oct-13 17:00N 47°30' W 003°58'2 3.5
2017-Oct-13 16:29N 47°29' W 003°56'2 3.5
2017-Oct-13 15:59N 47°28' W 003°53'3 5.7
2017-Oct-13 15:31N 47°27' W 003°50'2 3.4
2017-Oct-13 15:00N 47°26' W 003°48'2 3.4
2017-Oct-13 14:29N 47°26' W 003°45'2 3.4
2017-Oct-13 13:58N 47°27' W 003°43'2 3.5
2017-Oct-13 13:30N 47°26' W 003°41'2 3.0
2017-Oct-13 13:00N 47°27' W 003°39'2 3.2
2017-Oct-13 12:30N 47°28' W 003°39'2 3.3
2017-Oct-13 12:00N 47°29' W 003°37'2 4.5
2017-Oct-13 11:30N 47°29' W 003°33'4 8.6
2017-Oct-13 11:00N 47°30' W 003°27'1 2.4
2017-Oct-13 10:30N 47°30' W 003°25'2 3.3
2017-Oct-13 10:00N 47°29' W 003°23'2 3.3
2017-Oct-13 09:30N 47°28' W 003°21'1 2.8
2017-Oct-13 09:00N 47°30' W 003°21'2 3.2
2017-Oct-13 08:30N 47°31' W 003°23'2 3.2
2017-Oct-13 08:00N 47°32' W 003°25'2 3.4
2017-Oct-13 07:30N 47°33' W 003°26'1 3.0
2017-Oct-13 07:00N 47°31' W 003°27'2 3.1
2017-Oct-13 06:30N 47°30' W 003°26'1 3.0
2017-Oct-13 06:00N 47°29' W 003°27'1 2.9
2017-Oct-13 05:30N 47°27' W 003°27'1 2.8
2017-Oct-13 05:00N 47°28' W 003°25'1 2.8
2017-Oct-13 04:30N 47°29' W 003°24'2 3.1
2017-Oct-13 04:00N 47°30' W 003°26'2 3.1
2017-Oct-13 03:30N 47°31' W 003°27'2 3.2
2017-Oct-13 03:00N 47°33' W 003°27'4 7.5
2017-Oct-13 02:30N 47°35' W 003°23'4 8.0
2017-Oct-13 02:00N 47°39' W 003°22'4 8.5
2017-Oct-13 01:30N 47°44' W 003°22'0 0.3
2017-Oct-13 00:58N 47°44' W 003°22'0 0.3
2017-Oct-13 00:30N 47°44' W 003°22'0 0.0
2017-Oct-13 00:00N 47°44' W 003°22'2 3.8
2017-Oct-12 23:30N 47°42' W 003°22'4 8.6
2017-Oct-12 23:00N 47°38' W 003°22'4 8.5
2017-Oct-12 22:30N 47°33' W 003°23'4 8.6
2017-Oct-12 22:00N 47°29' W 003°25'4 8.5
2017-Oct-12 21:30N 47°25' W 003°27'4 8.5
2017-Oct-12 21:00N 47°21' W 003°29'4 7.8
2017-Oct-12 20:30N 47°17' W 003°31'4 8.8
2017-Oct-12 20:00N 47°13' W 003°32'2 3.9
2017-Oct-12 19:25N 47°11' W 003°33'4 3.2
2017-Oct-12 18:14N 47°08' W 003°30'1 3.4
2017-Oct-12 17:53N 47°07' W 003°29'2 3.5
2017-Oct-12 17:27N 47°05' W 003°30'2 3.6
2017-Oct-12 17:00N 47°04' W 003°30'2 3.7
2017-Oct-12 16:30N 47°02' W 003°31'2 3.4
2017-Oct-12 15:48N 46°60' W 003°31'1 2.7
2017-Oct-12 15:26N 46°59' W 003°32'2 3.4
2017-Oct-12 14:59N 46°58' W 003°33'1 0.5
2017-Oct-12 12:47N 46°58' W 003°32'0 0.3
2017-Oct-12 11:46N 46°58' W 003°32'4 1.1
2017-Oct-12 07:54N 47°02' W 003°31'2 1.3
2017-Oct-12 06:43N 47°04' W 003°30'1 3.4
2017-Oct-12 06:25N 47°03' W 003°30'1 3.4
2017-Oct-12 05:59N 47°01' W 003°31'2 3.4
2017-Oct-12 05:30N 46°60' W 003°31'2 3.5
2017-Oct-12 05:00N 46°58' W 003°32'2 3.5
2017-Oct-12 04:29N 46°56' W 003°33'2 3.5
2017-Oct-12 04:00N 46°55' W 003°34'2 3.4
2017-Oct-12 03:29N 46°55' W 003°37'1 2.1
2017-Oct-12 03:00N 46°56' W 003°37'2 3.1
2017-Oct-12 02:30N 46°55' W 003°35'2 4.0
2017-Oct-12 02:00N 46°54' W 003°33'1 1.3
2017-Oct-12 01:31N 46°54' W 003°33'2 3.1
2017-Oct-12 01:00N 46°55' W 003°35'1 3.0
2017-Oct-12 00:30N 46°56' W 003°37'1 2.9
2017-Oct-12 00:00N 46°55' W 003°39'1 2.7
2017-Oct-11 23:31N 46°54' W 003°38'2 3.4
2017-Oct-11 22:57N 46°54' W 003°35'9 2.8
2017-Oct-11 19:33N 47°03' W 003°31'1 2.8
2017-Oct-11 19:11N 47°04' W 003°31'1 2.9
2017-Oct-11 18:59N 47°04' W 003°30'2 3.3
2017-Oct-11 18:30N 47°03' W 003°30'2 3.3
2017-Oct-11 18:00N 47°01' W 003°31'11 0.6
2017-Oct-10 23:22N 47°12' W 003°34'1 3.1
2017-Oct-10 22:56N 47°13' W 003°36'2 2.5
2017-Oct-10 21:56N 47°15' W 003°37'2 3.5
2017-Oct-10 21:15N 47°17' W 003°36'2 3.9
2017-Oct-10 20:45N 47°19' W 003°36'2 6.7
2017-Oct-10 20:30N 47°21' W 003°34'4 8.3
2017-Oct-10 19:59N 47°24' W 003°31'4 8.2
2017-Oct-10 19:30N 47°28' W 003°28'4 8.1
2017-Oct-10 19:00N 47°31' W 003°25'4 8.2
2017-Oct-10 18:30N 47°35' W 003°22'4 8.4
2017-Oct-10 18:00N 47°39' W 003°22'4 7.8
2017-Oct-10 17:30N 47°43' W 003°22'1 1.7
2017-Oct-10 16:59N 47°44' W 003°22'0 0.0
2017-Oct-10 16:29N 47°44' W 003°22'0 0.0
2017-Oct-10 15:59N 47°44' W 003°22'0 0.0
2017-Oct-10 15:29N 47°44' W 003°22'0 0.0
2017-Oct-10 14:59N 47°44' W 003°22'0 0.0
2017-Oct-10 13:59N 47°44' W 003°22'0 0.0
2017-Oct-10 13:29N 47°44' W 003°22'0 0.0
2017-Oct-10 12:59N 47°44' W 003°22'0 0.0
2017-Oct-10 12:29N 47°44' W 003°22'  
2017-Oct-07 19:51N 47°44' W 003°22'0 0.0
2017-Oct-07 19:30N 47°44' W 003°22'0 0.0
2017-Oct-07 19:00N 47°44' W 003°22'1 2.1
2017-Oct-07 18:31N 47°43' W 003°22'4 7.6
2017-Oct-07 18:01N 47°39' W 003°22'4 8.0
2017-Oct-07 17:30N 47°35' W 003°21'4 8.0
2017-Oct-07 17:01N 47°31' W 003°21'1 2.5
2017-Oct-07 16:30N 47°30' W 003°21'2 3.2
2017-Oct-07 16:00N 47°31' W 003°23'2 3.1
2017-Oct-07 15:30N 47°31' W 003°25'1 2.4
2017-Oct-07 15:00N 47°30' W 003°24'1 2.8
2017-Oct-07 14:30N 47°30' W 003°22'1 2.0
2017-Oct-07 14:01N 47°30' W 003°21'2 3.3
2017-Oct-07 13:31N 47°31' W 003°23'2 4.0
2017-Oct-07 13:01N 47°32' W 003°25'1 1.9
2017-Oct-07 12:30N 47°33' W 003°27'2 3.3
2017-Oct-07 12:00N 47°31' W 003°27'1 2.6
2017-Oct-07 11:30N 47°31' W 003°25'1 2.3
2017-Oct-07 11:00N 47°31' W 003°23'2 3.0
2017-Oct-07 10:30N 47°30' W 003°22'2 3.0
2017-Oct-07 10:00N 47°29' W 003°20'  
Track history (hours):
 
Tides and Currents Weather Stations Pressure Air Temp Water Temp Dewpoint Dewpoint Depression Visibility Wind Speed Wind Dir Waves Ship Positions

F/V Cote D'ambre

Last reported at 2017-Oct-17 09:30 UTC. Time now 2017-Oct-17 09:38 UTC.
Position N 47°30' W 003°24'.

Length 16 m; draft 4 m.

Type: Fishing. MMSI: 227128800.

Date/timePositionNaut miles runAvg speedWind from/ knotsBaromVisibWave heightAir tempDewpointWater temp
2017-Oct-17 09:30N 47°30' W 003°24'1 2.4
2017-Oct-17 09:00N 47°29' W 003°23'2 3.1
2017-Oct-17 08:30N 47°28' W 003°21'1 2.8
2017-Oct-17 08:00N 47°30' W 003°21'1 2.8
2017-Oct-17 07:30N 47°31' W 003°22'1 2.9
2017-Oct-17 07:00N 47°31' W 003°24'1 2.8
2017-Oct-17 06:30N 47°32' W 003°26'  
2017-Oct-13 22:47N 47°44' W 003°22'0 0.6
2017-Oct-13 22:30N 47°44' W 003°22'0 0.0
2017-Oct-13 22:00N 47°44' W 003°22'2 3.9
2017-Oct-13 21:30N 47°42' W 003°22'4 8.1
2017-Oct-13 21:00N 47°40' W 003°28'4 8.3
2017-Oct-13 20:30N 47°39' W 003°34'4 8.4
2017-Oct-13 20:00N 47°37' W 003°39'4 8.4
2017-Oct-13 19:30N 47°35' W 003°45'4 7.9
2017-Oct-13 19:00N 47°33' W 003°49'1 2.7
2017-Oct-13 18:30N 47°32' W 003°51'2 3.2
2017-Oct-13 18:00N 47°32' W 003°54'2 3.3
2017-Oct-13 17:31N 47°31' W 003°56'2 3.0
2017-Oct-13 17:00N 47°30' W 003°58'2 3.5
2017-Oct-13 16:29N 47°29' W 003°56'2 3.5
2017-Oct-13 15:59N 47°28' W 003°53'3 5.7
2017-Oct-13 15:31N 47°27' W 003°50'2 3.4
2017-Oct-13 15:00N 47°26' W 003°48'2 3.4
2017-Oct-13 14:29N 47°26' W 003°45'2 3.4
2017-Oct-13 13:58N 47°27' W 003°43'2 3.5
2017-Oct-13 13:30N 47°26' W 003°41'2 3.0
2017-Oct-13 13:00N 47°27' W 003°39'2 3.2
2017-Oct-13 12:30N 47°28' W 003°39'2 3.3
2017-Oct-13 12:00N 47°29' W 003°37'2 4.5
2017-Oct-13 11:30N 47°29' W 003°33'4 8.6
2017-Oct-13 11:00N 47°30' W 003°27'1 2.4
2017-Oct-13 10:30N 47°30' W 003°25'2 3.3
2017-Oct-13 10:00N 47°29' W 003°23'2 3.3
2017-Oct-13 09:30N 47°28' W 003°21'1 2.8
2017-Oct-13 09:00N 47°30' W 003°21'2 3.2
2017-Oct-13 08:30N 47°31' W 003°23'2 3.2
2017-Oct-13 08:00N 47°32' W 003°25'2 3.4
2017-Oct-13 07:30N 47°33' W 003°26'1 3.0
2017-Oct-13 07:00N 47°31' W 003°27'2 3.1
2017-Oct-13 06:30N 47°30' W 003°26'1 3.0
2017-Oct-13 06:00N 47°29' W 003°27'1 2.9
2017-Oct-13 05:30N 47°27' W 003°27'1 2.8
2017-Oct-13 05:00N 47°28' W 003°25'1 2.8
2017-Oct-13 04:30N 47°29' W 003°24'2 3.1
2017-Oct-13 04:00N 47°30' W 003°26'2 3.1
2017-Oct-13 03:30N 47°31' W 003°27'2 3.2
2017-Oct-13 03:00N 47°33' W 003°27'4 7.5
2017-Oct-13 02:30N 47°35' W 003°23'4 8.0
2017-Oct-13 02:00N 47°39' W 003°22'4 8.5
2017-Oct-13 01:30N 47°44' W 003°22'0 0.3
2017-Oct-13 00:58N 47°44' W 003°22'0 0.3
2017-Oct-13 00:30N 47°44' W 003°22'0 0.0
2017-Oct-13 00:00N 47°44' W 003°22'2 3.8
2017-Oct-12 23:30N 47°42' W 003°22'4 8.6
2017-Oct-12 23:00N 47°38' W 003°22'4 8.5
2017-Oct-12 22:30N 47°33' W 003°23'4 8.6
2017-Oct-12 22:00N 47°29' W 003°25'4 8.5
2017-Oct-12 21:30N 47°25' W 003°27'4 8.5
2017-Oct-12 21:00N 47°21' W 003°29'4 7.8
2017-Oct-12 20:30N 47°17' W 003°31'4 8.8
2017-Oct-12 20:00N 47°13' W 003°32'2 3.9
2017-Oct-12 19:25N 47°11' W 003°33'4 3.2
2017-Oct-12 18:14N 47°08' W 003°30'1 3.4
2017-Oct-12 17:53N 47°07' W 003°29'2 3.5
2017-Oct-12 17:27N 47°05' W 003°30'2 3.6
2017-Oct-12 17:00N 47°04' W 003°30'2 3.7
2017-Oct-12 16:30N 47°02' W 003°31'2 3.4
2017-Oct-12 15:48N 46°60' W 003°31'1 2.7
2017-Oct-12 15:26N 46°59' W 003°32'2 3.4
2017-Oct-12 14:59N 46°58' W 003°33'1 0.5
2017-Oct-12 12:47N 46°58' W 003°32'0 0.3
2017-Oct-12 11:46N 46°58' W 003°32'4 1.1
2017-Oct-12 07:54N 47°02' W 003°31'2 1.3
2017-Oct-12 06:43N 47°04' W 003°30'1 3.4
2017-Oct-12 06:25N 47°03' W 003°30'1 3.4
2017-Oct-12 05:59N 47°01' W 003°31'2 3.4
2017-Oct-12 05:30N 46°60' W 003°31'2 3.5
2017-Oct-12 05:00N 46°58' W 003°32'2 3.5
2017-Oct-12 04:29N 46°56' W 003°33'2 3.5
2017-Oct-12 04:00N 46°55' W 003°34'2 3.4
2017-Oct-12 03:29N 46°55' W 003°37'1 2.1
2017-Oct-12 03:00N 46°56' W 003°37'2 3.1
2017-Oct-12 02:30N 46°55' W 003°35'2 4.0
2017-Oct-12 02:00N 46°54' W 003°33'1 1.3
2017-Oct-12 01:31N 46°54' W 003°33'2 3.1
2017-Oct-12 01:00N 46°55' W 003°35'1 3.0
2017-Oct-12 00:30N 46°56' W 003°37'1 2.9
2017-Oct-12 00:00N 46°55' W 003°39'1 2.7
2017-Oct-11 23:31N 46°54' W 003°38'2 3.4
2017-Oct-11 22:57N 46°54' W 003°35'9 2.8
2017-Oct-11 19:33N 47°03' W 003°31'1 2.8
2017-Oct-11 19:11N 47°04' W 003°31'1 2.9
2017-Oct-11 18:59N 47°04' W 003°30'2 3.3
2017-Oct-11 18:30N 47°03' W 003°30'2 3.3
2017-Oct-11 18:00N 47°01' W 003°31'11 0.6
2017-Oct-10 23:22N 47°12' W 003°34'1 3.1
2017-Oct-10 22:56N 47°13' W 003°36'2 2.5
2017-Oct-10 21:56N 47°15' W 003°37'2 3.5
2017-Oct-10 21:15N 47°17' W 003°36'2 3.9
2017-Oct-10 20:45N 47°19' W 003°36'2 6.7
2017-Oct-10 20:30N 47°21' W 003°34'4 8.3
2017-Oct-10 19:59N 47°24' W 003°31'4 8.2
2017-Oct-10 19:30N 47°28' W 003°28'4 8.1
2017-Oct-10 19:00N 47°31' W 003°25'4 8.2
2017-Oct-10 18:30N 47°35' W 003°22'4 8.4
2017-Oct-10 18:00N 47°39' W 003°22'4 7.8
2017-Oct-10 17:30N 47°43' W 003°22'1 1.7
2017-Oct-10 16:59N 47°44' W 003°22'0 0.0
2017-Oct-10 16:29N 47°44' W 003°22'0 0.0
2017-Oct-10 15:59N 47°44' W 003°22'0 0.0
2017-Oct-10 15:29N 47°44' W 003°22'0 0.0
2017-Oct-10 14:59N 47°44' W 003°22'0 0.0
2017-Oct-10 13:59N 47°44' W 003°22'0 0.0
2017-Oct-10 13:29N 47°44' W 003°22'0 0.0
2017-Oct-10 12:59N 47°44' W 003°22'0 0.0
2017-Oct-10 12:29N 47°44' W 003°22'  
2017-Oct-07 19:51N 47°44' W 003°22'0 0.0
2017-Oct-07 19:30N 47°44' W 003°22'0 0.0
2017-Oct-07 19:00N 47°44' W 003°22'1 2.1
2017-Oct-07 18:31N 47°43' W 003°22'4 7.6
2017-Oct-07 18:01N 47°39' W 003°22'4 8.0
2017-Oct-07 17:30N 47°35' W 003°21'4 8.0
2017-Oct-07 17:01N 47°31' W 003°21'1 2.5
2017-Oct-07 16:30N 47°30' W 003°21'2 3.2
2017-Oct-07 16:00N 47°31' W 003°23'2 3.1
2017-Oct-07 15:30N 47°31' W 003°25'1 2.4
2017-Oct-07 15:00N 47°30' W 003°24'1 2.8
2017-Oct-07 14:30N 47°30' W 003°22'1 2.0
2017-Oct-07 14:01N 47°30' W 003°21'2 3.3
2017-Oct-07 13:31N 47°31' W 003°23'2 4.0
2017-Oct-07 13:01N 47°32' W 003°25'1 1.9
2017-Oct-07 12:30N 47°33' W 003°27'2 3.3
2017-Oct-07 12:00N 47°31' W 003°27'1 2.6
2017-Oct-07 11:30N 47°31' W 003°25'1 2.3
2017-Oct-07 11:00N 47°31' W 003°23'2 3.0
2017-Oct-07 10:30N 47°30' W 003°22'2 3.0
2017-Oct-07 10:00N 47°29' W 003°20'  

Dump ship's entire track history